createdAt,value
2019-04-03T00:03:00.000Z,12.5
2019-04-03T00:08:00.000Z,12.4
2019-04-03T00:13:00.000Z,12.4
2019-04-03T00:18:00.000Z,12.4
2019-04-03T00:23:00.000Z,12.4
2019-04-03T00:28:00.000Z,12.3
2019-04-03T00:33:00.000Z,12.3
2019-04-03T00:38:00.000Z,12.2
2019-04-03T00:43:00.000Z,12.2
2019-04-03T01:05:00.000Z,12.0
2019-04-03T01:10:00.000Z,11.9
2019-04-03T01:15:00.000Z,11.9
2019-04-03T01:20:00.000Z,11.8
2019-04-03T01:25:00.000Z,11.7
2019-04-03T01:30:00.000Z,11.7
2019-04-03T01:35:00.000Z,11.6
2019-04-03T01:40:00.000Z,11.6
2019-04-03T01:45:00.000Z,11.6
2019-04-03T01:50:00.000Z,11.5
2019-04-03T01:55:00.000Z,11.5
2019-04-03T02:00:00.000Z,11.5
2019-04-03T02:05:00.000Z,11.5
2019-04-03T02:10:00.000Z,11.4
2019-04-03T02:15:00.000Z,11.3
2019-04-03T02:20:00.000Z,11.2
2019-04-03T02:25:00.000Z,11.1
2019-04-03T02:30:00.000Z,11.1
2019-04-03T02:35:00.000Z,11.1
2019-04-03T02:40:00.000Z,11.0
2019-04-03T02:45:00.000Z,11.0
2019-04-03T02:50:00.000Z,11.0
2019-04-03T02:55:00.000Z,11.0
2019-04-03T03:00:00.000Z,11.0
2019-04-03T03:05:00.000Z,10.9
2019-04-03T03:10:00.000Z,10.8
2019-04-03T03:15:00.000Z,10.7
2019-04-03T03:20:00.000Z,10.6
2019-04-03T03:25:00.000Z,10.5
2019-04-03T03:30:00.000Z,10.4
2019-04-03T03:36:00.000Z,10.3
2019-04-03T03:41:00.000Z,10.3
2019-04-03T03:46:00.000Z,10.2
2019-04-03T03:51:00.000Z,10.1
2019-04-03T03:56:00.000Z,10.1
2019-04-03T04:01:00.000Z,10.0
2019-04-03T04:06:00.000Z,9.9
2019-04-03T04:11:00.000Z,9.9
2019-04-03T04:16:00.000Z,9.8
2019-04-03T04:21:00.000Z,9.8
2019-04-03T04:26:00.000Z,9.8
2019-04-03T04:31:00.000Z,9.8
2019-04-03T04:36:00.000Z,9.8
2019-04-03T04:41:00.000Z,9.8
2019-04-03T04:46:00.000Z,9.8
2019-04-03T04:51:00.000Z,9.8
2019-04-03T04:56:00.000Z,9.8
2019-04-03T05:01:00.000Z,9.9
2019-04-03T05:06:00.000Z,9.9
2019-04-03T05:11:00.000Z,10.0
2019-04-03T05:16:00.000Z,10.0
2019-04-03T05:21:00.000Z,10.0
2019-04-03T05:26:00.000Z,10.0
2019-04-03T05:31:00.000Z,10.0
2019-04-03T05:36:00.000Z,10.0
2019-04-03T05:41:00.000Z,10.0
2019-04-03T05:46:00.000Z,10.1
2019-04-03T05:51:00.000Z,10.2
2019-04-03T05:56:00.000Z,10.4
2019-04-03T06:01:00.000Z,10.5
2019-04-03T06:06:00.000Z,10.6
2019-04-03T06:11:00.000Z,10.6
2019-04-03T06:16:00.000Z,10.7
2019-04-03T06:21:00.000Z,10.8
2019-04-03T06:26:00.000Z,10.9
2019-04-03T06:31:00.000Z,10.9
2019-04-03T06:36:00.000Z,11.0
2019-04-03T06:41:00.000Z,11.2
2019-04-03T06:46:00.000Z,11.3
2019-04-03T06:51:00.000Z,11.5
2019-04-03T06:56:00.000Z,11.6
2019-04-03T07:01:00.000Z,11.7
2019-04-03T07:06:00.000Z,11.8
2019-04-03T07:11:00.000Z,12.0
2019-04-03T07:16:00.000Z,12.1
2019-04-03T07:21:00.000Z,12.2
2019-04-03T07:26:00.000Z,12.3
2019-04-03T07:31:00.000Z,12.4
2019-04-03T07:36:00.000Z,12.6
2019-04-03T07:41:00.000Z,12.8
2019-04-03T07:46:00.000Z,12.9
2019-04-03T07:52:00.000Z,13.0
2019-04-03T07:57:00.000Z,13.2
2019-04-03T08:02:00.000Z,13.4
2019-04-03T08:07:00.000Z,13.6
2019-04-03T08:12:00.000Z,13.9
2019-04-03T08:17:00.000Z,14.2
2019-04-03T08:22:00.000Z,14.6
2019-04-03T08:27:00.000Z,14.9
2019-04-03T08:32:00.000Z,15.2
2019-04-03T08:37:00.000Z,15.4
2019-04-03T08:42:00.000Z,15.5
2019-04-03T08:47:00.000Z,15.7
2019-04-03T08:52:00.000Z,16.0
2019-04-03T08:57:00.000Z,16.4
2019-04-03T09:02:00.000Z,16.9
2019-04-03T09:07:00.000Z,17.1
2019-04-03T09:12:00.000Z,17.4
2019-04-03T09:17:00.000Z,17.8
2019-04-03T09:22:00.000Z,17.8
2019-04-03T09:27:00.000Z,17.6
2019-04-03T09:32:00.000Z,17.5
2019-04-03T09:37:00.000Z,17.5
2019-04-03T09:42:00.000Z,17.6
2019-04-03T09:47:00.000Z,17.7
2019-04-03T09:52:00.000Z,17.9
2019-04-03T09:58:00.000Z,18.1
2019-04-03T10:03:00.000Z,18.1
2019-04-03T10:08:00.000Z,18.2
2019-04-03T10:13:00.000Z,18.5
2019-04-03T10:18:00.000Z,18.8
2019-04-03T10:23:00.000Z,18.9
2019-04-03T10:28:00.000Z,19.1
2019-04-03T10:33:00.000Z,18.8
2019-04-03T10:38:00.000Z,18.4
2019-04-03T10:43:00.000Z,18.3
2019-04-03T10:48:00.000Z,18.1
2019-04-03T10:53:00.000Z,18.2
2019-04-03T10:58:00.000Z,18.7
2019-04-03T11:03:00.000Z,19.3
2019-04-03T11:08:00.000Z,19.5
2019-04-03T11:13:00.000Z,19.7
2019-04-03T11:18:00.000Z,20.0
2019-04-03T11:30:00.000Z,19.4
2019-04-03T11:35:00.000Z,19.0
2019-04-03T11:40:00.000Z,18.7
2019-04-03T11:45:00.000Z,18.5
2019-04-03T11:50:00.000Z,18.6
2019-04-03T11:55:00.000Z,18.6
2019-04-03T12:00:00.000Z,18.6
2019-04-03T12:05:00.000Z,18.6
2019-04-03T12:10:00.000Z,18.7
2019-04-03T12:15:00.000Z,18.7
2019-04-03T12:20:00.000Z,18.7
2019-04-03T12:25:00.000Z,18.8
2019-04-03T12:30:00.000Z,18.8
2019-04-03T12:35:00.000Z,18.8
2019-04-03T12:40:00.000Z,18.8
2019-04-03T12:45:00.000Z,18.7
2019-04-03T12:51:00.000Z,18.7
2019-04-03T12:56:00.000Z,18.6
2019-04-03T13:01:00.000Z,18.5
2019-04-03T13:06:00.000Z,18.5
2019-04-03T13:11:00.000Z,18.6
2019-04-03T13:16:00.000Z,18.7
2019-04-03T13:21:00.000Z,18.8
2019-04-03T13:26:00.000Z,18.9
2019-04-03T13:31:00.000Z,18.9
2019-04-03T13:36:00.000Z,19.0
2019-04-03T13:41:00.000Z,19.0
2019-04-03T13:46:00.000Z,19.0
2019-04-03T13:51:00.000Z,19.0
2019-04-03T13:56:00.000Z,18.9
2019-04-03T14:01:00.000Z,18.9
2019-04-03T14:06:00.000Z,18.9
2019-04-03T14:11:00.000Z,18.8
2019-04-03T14:16:00.000Z,18.7
2019-04-03T14:21:00.000Z,18.7
2019-04-03T14:26:00.000Z,18.6
2019-04-03T14:31:00.000Z,18.6
2019-04-03T14:36:00.000Z,18.6
2019-04-03T14:41:00.000Z,18.6
2019-04-03T14:46:00.000Z,18.5
2019-04-03T14:51:00.000Z,18.4
2019-04-03T14:56:00.000Z,18.3
2019-04-03T15:01:00.000Z,18.2
2019-04-03T15:06:00.000Z,18.2
2019-04-03T15:12:00.000Z,18.3
2019-04-03T15:17:00.000Z,18.3
2019-04-03T15:22:00.000Z,18.3
2019-04-03T15:27:00.000Z,18.3
2019-04-03T15:32:00.000Z,18.3
2019-04-03T15:37:00.000Z,18.3
2019-04-03T15:42:00.000Z,18.4
2019-04-03T15:47:00.000Z,18.6
2019-04-03T15:52:00.000Z,18.8
2019-04-03T15:57:00.000Z,19.0
2019-04-03T16:02:00.000Z,19.2
2019-04-03T16:07:00.000Z,19.3
2019-04-03T16:12:00.000Z,19.3
2019-04-03T16:17:00.000Z,19.3
2019-04-03T16:22:00.000Z,19.3
2019-04-03T16:27:00.000Z,19.2
2019-04-03T16:32:00.000Z,19.1
2019-04-03T16:37:00.000Z,19.0
2019-04-03T16:42:00.000Z,18.9
2019-04-03T16:47:00.000Z,18.8
2019-04-03T16:53:00.000Z,18.6
2019-04-03T16:58:00.000Z,18.5
2019-04-03T17:03:00.000Z,18.4
2019-04-03T17:08:00.000Z,18.2
2019-04-03T17:13:00.000Z,18.1
2019-04-03T17:18:00.000Z,17.9
2019-04-03T17:23:00.000Z,17.8
2019-04-03T17:28:00.000Z,17.7
2019-04-03T17:33:00.000Z,17.5
2019-04-03T17:38:00.000Z,17.3
2019-04-03T17:43:00.000Z,17.2
2019-04-03T17:48:00.000Z,17.0
2019-04-03T17:53:00.000Z,16.8
2019-04-03T17:58:00.000Z,16.7
2019-04-03T18:03:00.000Z,16.6
2019-04-03T18:08:00.000Z,16.4
2019-04-03T18:13:00.000Z,16.3
2019-04-03T18:18:00.000Z,16.2
2019-04-03T18:23:00.000Z,16.1
2019-04-03T18:28:00.000Z,16.0
2019-04-03T18:33:00.000Z,15.9
2019-04-03T18:38:00.000Z,15.8
2019-04-03T18:43:00.000Z,15.8
2019-04-03T18:48:00.000Z,15.7
2019-04-03T18:53:00.000Z,15.6
2019-04-03T18:58:00.000Z,15.5
2019-04-03T19:03:00.000Z,15.4
2019-04-03T19:08:00.000Z,15.3
2019-04-03T19:13:00.000Z,15.2
2019-04-03T19:18:00.000Z,15.1
2019-04-03T19:23:00.000Z,15.0
2019-04-03T19:28:00.000Z,14.9
2019-04-03T19:33:00.000Z,14.8
2019-04-03T19:38:00.000Z,14.7
2019-04-03T19:43:00.000Z,14.6
2019-04-03T19:48:00.000Z,14.5
2019-04-03T19:53:00.000Z,14.4
2019-04-03T19:59:00.000Z,14.3
2019-04-03T20:04:00.000Z,14.3
2019-04-03T20:09:00.000Z,14.2
2019-04-03T20:14:00.000Z,14.2
2019-04-03T20:19:00.000Z,14.1
2019-04-03T20:24:00.000Z,14.1
2019-04-03T20:29:00.000Z,14.0
2019-04-03T20:34:00.000Z,13.8
2019-04-03T20:39:00.000Z,13.7
2019-04-03T20:44:00.000Z,13.6
2019-04-03T20:49:00.000Z,13.5
2019-04-03T20:54:00.000Z,13.4
2019-04-03T20:59:00.000Z,13.3
2019-04-03T21:04:00.000Z,13.2
2019-04-03T21:09:00.000Z,13.1
2019-04-03T21:14:00.000Z,13.0
2019-04-03T21:19:00.000Z,13.0
2019-04-03T21:24:00.000Z,12.9
2019-04-03T21:29:00.000Z,12.9
2019-04-03T21:34:00.000Z,12.8
2019-04-03T21:39:00.000Z,12.7
2019-04-03T21:44:00.000Z,12.6
2019-04-03T21:49:00.000Z,12.5
2019-04-03T21:54:00.000Z,12.5
2019-04-03T21:59:00.000Z,12.4
2019-04-03T22:04:00.000Z,12.3
2019-04-03T22:09:00.000Z,12.3
2019-04-03T22:14:00.000Z,12.2
2019-04-03T22:19:00.000Z,12.2
2019-04-03T22:24:00.000Z,12.1
2019-04-03T22:29:00.000Z,12.0
2019-04-03T22:34:00.000Z,12.0
2019-04-03T22:39:00.000Z,11.9
2019-04-03T22:44:00.000Z,11.9
2019-04-03T22:49:00.000Z,11.8
2019-04-03T22:54:00.000Z,11.8
2019-04-03T22:59:00.000Z,11.8
2019-04-03T23:04:00.000Z,11.8
2019-04-03T23:09:00.000Z,11.8
2019-04-03T23:14:00.000Z,11.8
2019-04-03T23:19:00.000Z,11.8
2019-04-03T23:24:00.000Z,11.8
2019-04-03T23:29:00.000Z,11.7
2019-04-03T23:34:00.000Z,11.6
2019-04-03T23:39:00.000Z,11.5
2019-04-03T23:44:00.000Z,11.5
2019-04-03T23:49:00.000Z,11.4
2019-04-03T23:54:00.000Z,11.4
2019-04-03T23:59:00.000Z,11.3
